createdAt,value
2018-12-04T00:01:41.840Z,99573.53
2018-12-04T00:04:10.187Z,99580.09
2018-12-04T00:06:38.680Z,99578.38
2018-12-04T00:09:07.734Z,99585.70
2018-12-04T00:11:36.099Z,99588.87
2018-12-04T00:14:05.225Z,99584.58
2018-12-04T00:16:33.647Z,99583.58
2018-12-04T00:19:02.291Z,99589.63
2018-12-04T00:21:30.770Z,99583.13
2018-12-04T00:23:59.203Z,99590.54
2018-12-04T00:26:28.025Z,99591.40
2018-12-04T00:28:56.401Z,99593.89
2018-12-04T00:31:24.826Z,99594.12
2018-12-04T00:33:53.484Z,99598.16
2018-12-04T00:36:22.068Z,99604.12
2018-12-04T00:38:50.506Z,99599.54
2018-12-04T00:41:18.885Z,99606.61
2018-12-04T00:43:47.252Z,99606.36
2018-12-04T00:46:15.915Z,99611.98
2018-12-04T00:48:44.183Z,99613.29
2018-12-04T00:51:12.866Z,99613.37
2018-12-04T00:53:41.490Z,99617.48
2018-12-04T00:56:09.958Z,99612.18
2018-12-04T00:58:38.234Z,99622.34
2018-12-04T01:01:06.671Z,99620.33
2018-12-04T01:03:35.214Z,99625.02
2018-12-04T01:06:03.684Z,99627.58
2018-12-04T01:08:32.393Z,99631.39
2018-12-04T01:11:00.754Z,99634.83
2018-12-04T01:13:29.109Z,99625.69
2018-12-04T01:15:57.520Z,99636.89
2018-12-04T01:18:26.088Z,99642.20
2018-12-04T01:20:54.727Z,99647.08
2018-12-04T01:23:23.158Z,99640.47
2018-12-04T01:25:51.533Z,99643.67
2018-12-04T01:28:19.888Z,99648.70
2018-12-04T01:30:48.763Z,99650.06
2018-12-04T01:33:17.144Z,99652.69
2018-12-04T01:35:45.784Z,99658.79
2018-12-04T01:38:14.208Z,99651.02
2018-12-04T01:40:42.713Z,99658.19
2018-12-04T01:43:11.029Z,99662.85
2018-12-04T01:45:39.479Z,99658.45
2018-12-04T01:48:07.830Z,99656.45
2018-12-04T01:50:36.182Z,99650.81
2018-12-04T01:53:04.599Z,99652.40
2018-12-04T01:55:33.304Z,99652.40
2018-12-04T01:58:01.646Z,99656.91
2018-12-04T02:00:30.347Z,99652.27
2018-12-04T02:02:58.609Z,99647.83
2018-12-04T02:05:27.400Z,99658.64
2018-12-04T02:07:55.734Z,99651.72
2018-12-04T02:10:24.005Z,99657.21
2018-12-04T02:12:52.287Z,99652.47
2018-12-04T02:15:20.709Z,99653.17
2018-12-04T02:17:48.969Z,99658.93
2018-12-04T02:20:17.618Z,99664.13
2018-12-04T02:22:46.333Z,99670.44
2018-12-04T02:25:15.113Z,99666.45
2018-12-04T02:27:43.648Z,99668.69
2018-12-04T02:30:11.951Z,99668.99
2018-12-04T02:32:40.210Z,99671.02
2018-12-04T02:35:08.561Z,99678.55
2018-12-04T02:37:37.260Z,99676.17
2018-12-04T02:40:05.784Z,99682.69
2018-12-04T02:42:34.589Z,99683.66
2018-12-04T02:45:02.995Z,99691.75
2018-12-04T02:47:31.256Z,99698.31
2018-12-04T02:49:59.630Z,99700.73
2018-12-04T02:52:28.043Z,99694.99
2018-12-04T02:54:56.587Z,99699.98
2018-12-04T02:57:24.837Z,99709.39
2018-12-04T02:59:53.405Z,99714.13
2018-12-04T03:02:21.653Z,99717.66
2018-12-04T03:04:57.227Z,99725.81
2018-12-04T03:07:25.687Z,99721.92
2018-12-04T03:09:54.075Z,99728.84
2018-12-04T03:12:22.332Z,99736.33
2018-12-04T03:14:50.982Z,99736.22
2018-12-04T03:17:19.245Z,99734.50
2018-12-04T03:22:33.914Z,99749.87
2018-12-04T03:25:02.164Z,99756.15
2018-12-04T03:27:30.514Z,99767.06
2018-12-04T03:29:58.811Z,99773.94
2018-12-04T03:32:27.158Z,99793.19
2018-12-04T03:34:55.579Z,99798.73
2018-12-04T03:37:23.894Z,99800.23
2018-12-04T03:39:52.540Z,99815.00
2018-12-04T03:42:20.815Z,99819.91
2018-12-04T03:44:49.127Z,99837.22
2018-12-04T03:47:17.486Z,99849.98
2018-12-04T03:49:46.727Z,99856.67
2018-12-04T03:52:15.144Z,99862.45
2018-12-04T03:54:43.778Z,99890.88
2018-12-04T03:57:12.715Z,99883.13
2018-12-04T03:59:41.119Z,99894.56
2018-12-04T04:02:09.473Z,99908.16
2018-12-04T04:04:37.930Z,99914.50
2018-12-04T04:07:06.244Z,99916.78
2018-12-04T04:09:34.512Z,99929.67
2018-12-04T04:12:03.252Z,99932.47
2018-12-04T04:14:31.828Z,99940.08
2018-12-04T04:17:00.433Z,99959.80
2018-12-04T04:19:29.079Z,99953.84
2018-12-04T04:21:57.512Z,99962.19
2018-12-04T04:24:25.883Z,99966.33
2018-12-04T04:26:54.732Z,99978.16
2018-12-04T04:29:23.051Z,99986.95
2018-12-04T04:31:51.431Z,99994.39
2018-12-04T04:34:19.694Z,100000.08
2018-12-04T04:36:48.102Z,100008.36
2018-12-04T04:39:16.362Z,100004.77
2018-12-04T04:41:44.625Z,100011.39
2018-12-04T04:44:13.322Z,100021.46
2018-12-04T04:46:41.696Z,100025.80
2018-12-04T04:49:10.243Z,100034.97
2018-12-04T04:51:38.564Z,100036.80
2018-12-04T04:54:07.283Z,100059.10
2018-12-04T04:56:35.540Z,100053.52
2018-12-04T04:59:04.238Z,100068.24
2018-12-04T05:01:32.607Z,100066.07
2018-12-04T05:04:01.072Z,100077.45
2018-12-04T05:06:29.578Z,100074.47
2018-12-04T05:08:57.946Z,100089.27
2018-12-04T05:11:26.200Z,100112.14
2018-12-04T05:13:54.967Z,100099.52
2018-12-04T05:16:23.341Z,100115.75
2018-12-04T05:18:51.666Z,100123.48
2018-12-04T05:21:20.418Z,100117.80
2018-12-04T05:23:48.997Z,100130.19
2018-12-04T05:26:18.052Z,100139.77
2018-12-04T05:28:46.526Z,100140.22
2018-12-04T05:31:15.020Z,100150.73
2018-12-04T05:33:43.487Z,100153.88
2018-12-04T05:36:12.612Z,100184.48
2018-12-04T05:38:41.071Z,100176.23
2018-12-04T05:41:09.489Z,100182.66
2018-12-04T05:43:37.897Z,100184.14
2018-12-04T05:46:06.168Z,100197.19
2018-12-04T05:48:34.617Z,100206.85
2018-12-04T05:51:03.156Z,100206.41
2018-12-04T05:53:35.604Z,100212.88
2018-12-04T05:56:05.290Z,100219.45
2018-12-04T05:58:34.002Z,100234.25
2018-12-04T06:01:02.642Z,100242.02
2018-12-04T06:03:31.510Z,100245.95
2018-12-04T06:06:01.038Z,100258.63
2018-12-04T06:08:29.472Z,100262.56
2018-12-04T06:10:57.860Z,100260.28
2018-12-04T06:13:26.163Z,100270.00
2018-12-04T06:15:54.713Z,100271.70
2018-12-04T06:18:23.068Z,100283.52
2018-12-04T06:20:51.590Z,100295.41
2018-12-04T06:23:20.231Z,100308.40
2018-12-04T06:25:48.544Z,100308.91
2018-12-04T06:28:16.799Z,100311.91
2018-12-04T06:30:45.432Z,100308.92
2018-12-04T06:33:13.696Z,100334.23
2018-12-04T06:35:42.181Z,100324.62
2018-12-04T06:38:10.811Z,100337.64
2018-12-04T06:40:39.354Z,100338.66
2018-12-04T06:43:07.753Z,100354.79
2018-12-04T06:45:36.393Z,100366.28
2018-12-04T06:48:04.752Z,100363.83
2018-12-04T06:50:33.171Z,100379.16
2018-12-04T06:53:01.432Z,100383.19
2018-12-04T06:55:30.086Z,100392.38
2018-12-04T06:57:59.050Z,100402.02
2018-12-04T07:00:27.662Z,100412.56
2018-12-04T07:02:56.270Z,100417.36
2018-12-04T07:05:24.879Z,100422.70
2018-12-04T07:08:12.576Z,100427.98
2018-12-04T07:10:40.980Z,100442.84
2018-12-04T07:13:09.240Z,100457.17
2018-12-04T07:15:37.802Z,100468.13
2018-12-04T07:18:06.231Z,100476.71
2018-12-04T07:20:53.609Z,100481.02
2018-12-04T07:23:21.911Z,100488.80
2018-12-04T07:25:50.444Z,100504.11
2018-12-04T07:28:18.804Z,100500.63
2018-12-04T07:30:47.224Z,100509.39
2018-12-04T07:33:15.516Z,100510.77
2018-12-04T07:35:43.775Z,100520.81
2018-12-04T07:38:12.097Z,100519.11
2018-12-04T07:40:40.723Z,100529.98
2018-12-04T07:43:09.489Z,100541.34
2018-12-04T07:48:13.922Z,100566.33
2018-12-04T07:50:42.450Z,100564.69
2018-12-04T07:53:11.103Z,100576.47
2018-12-04T08:00:51.753Z,100597.94
2018-12-04T08:03:20.735Z,100611.42
2018-12-04T08:05:49.021Z,100619.98
2018-12-04T08:08:17.920Z,100627.91
2018-12-04T08:10:46.278Z,100621.78
2018-12-04T08:13:14.550Z,100633.90
2018-12-04T08:15:43.374Z,100650.47
2018-12-04T08:18:11.739Z,100646.96
2018-12-04T08:20:40.084Z,100659.74
2018-12-04T08:23:09.183Z,100662.27
2018-12-04T08:25:37.775Z,100661.05
2018-12-04T08:28:06.470Z,100673.33
2018-12-04T08:30:35.070Z,100680.77
2018-12-04T08:33:03.427Z,100682.91
2018-12-04T08:35:50.836Z,100681.95
2018-12-04T08:38:19.462Z,100697.63
2018-12-04T08:40:47.816Z,100701.58
2018-12-04T08:43:16.138Z,100714.75
2018-12-04T08:45:44.388Z,100722.13
2018-12-04T08:48:12.638Z,100722.61
2018-12-04T08:50:41.044Z,100734.41
2018-12-04T08:53:09.434Z,100740.71
2018-12-04T08:55:37.789Z,100739.25
2018-12-04T08:58:06.376Z,100750.91
2018-12-04T09:03:33.313Z,100756.27
2018-12-04T09:06:01.686Z,100770.72
2018-12-04T09:08:29.970Z,100766.31
2018-12-04T09:10:58.566Z,100777.09
2018-12-04T09:13:26.832Z,100776.29
2018-12-04T09:15:55.183Z,100784.08
2018-12-04T09:18:23.640Z,100789.61
2018-12-04T09:20:51.998Z,100795.30
2018-12-04T09:23:20.386Z,100803.51
2018-12-04T09:25:48.928Z,100813.97
2018-12-04T09:28:17.405Z,100816.41
2018-12-04T09:30:45.745Z,100823.81
2018-12-04T09:33:14.555Z,100828.11
2018-12-04T09:35:42.815Z,100821.47
2018-12-04T09:38:11.088Z,100828.70
2018-12-04T09:40:39.513Z,100834.27
2018-12-04T09:43:07.787Z,100845.19
2018-12-04T09:45:36.046Z,100844.39
2018-12-04T09:48:04.453Z,100850.96
2018-12-04T09:50:33.131Z,100852.70
2018-12-04T09:53:01.480Z,100850.77
2018-12-04T09:55:29.855Z,100848.06
2018-12-04T09:57:58.166Z,100850.25
2018-12-04T10:00:26.705Z,100853.23
2018-12-04T10:02:54.997Z,100857.93
2018-12-04T10:05:23.360Z,100857.34
2018-12-04T10:07:51.631Z,100859.85
2018-12-04T10:10:20.061Z,100868.70
2018-12-04T10:12:49.101Z,100864.99
2018-12-04T10:15:18.021Z,100870.48
2018-12-04T10:17:46.432Z,100877.18
2018-12-04T10:20:14.950Z,100884.09
2018-12-04T10:22:43.971Z,100893.41
2018-12-04T10:25:12.319Z,100892.72
2018-12-04T10:27:40.803Z,100893.76
2018-12-04T10:30:10.086Z,100897.77
2018-12-04T10:32:38.670Z,100899.96
2018-12-04T10:35:06.934Z,100909.16
2018-12-04T10:37:35.195Z,100903.14
2018-12-04T10:40:04.452Z,100908.72
2018-12-04T10:42:32.718Z,100911.45
2018-12-04T10:45:01.079Z,100914.16
2018-12-04T10:47:29.728Z,100920.34
2018-12-04T10:49:58.033Z,100915.09
2018-12-04T10:52:26.659Z,100925.45
2018-12-04T10:54:54.955Z,100929.71
2018-12-04T10:57:23.677Z,100925.67
2018-12-04T10:59:52.436Z,100930.34
2018-12-04T11:13:22.537Z,100958.06
2018-12-04T11:15:51.085Z,100959.94
2018-12-04T11:18:19.805Z,100968.68
2018-12-04T11:20:48.106Z,100962.15
2018-12-04T11:23:16.955Z,100970.88
2018-12-04T11:25:45.237Z,100970.44
2018-12-04T11:28:32.946Z,100971.33
2018-12-04T11:31:01.220Z,100969.64
2018-12-04T11:33:29.848Z,100978.12
2018-12-04T11:35:58.438Z,100984.65
2018-12-04T11:38:26.799Z,100984.14
2018-12-04T11:40:55.069Z,100991.11
2018-12-04T11:43:23.479Z,101009.64
2018-12-04T11:45:51.837Z,100992.81
2018-12-04T11:48:21.227Z,101005.50
2018-12-04T11:50:49.535Z,101017.39
2018-12-04T11:53:18.183Z,101007.47
2018-12-04T11:55:47.101Z,101021.55
2018-12-04T11:58:15.828Z,101023.67
2018-12-04T12:00:44.237Z,101029.34
2018-12-04T12:03:12.822Z,101041.34
2018-12-04T12:05:41.244Z,101043.86
2018-12-04T12:08:09.848Z,101048.97
2018-12-04T12:10:38.404Z,101044.36
2018-12-04T12:13:07.006Z,101041.27
2018-12-04T12:15:35.360Z,101052.28
2018-12-04T12:18:03.719Z,101046.22
2018-12-04T12:20:32.289Z,101049.86
2018-12-04T12:23:00.620Z,101052.12
2018-12-04T12:25:29.635Z,101060.55
2018-12-04T12:27:58.308Z,101077.55
2018-12-04T12:30:26.664Z,101063.63
2018-12-04T12:32:54.992Z,101073.77
2018-12-04T12:35:23.761Z,101086.48
2018-12-04T12:37:52.998Z,101084.31
2018-12-04T12:40:21.726Z,101093.04
2018-12-04T12:42:50.191Z,101096.97
2018-12-04T12:45:18.828Z,101105.77
2018-12-04T12:48:08.240Z,101104.84
2018-12-04T12:50:37.000Z,101099.22
2018-12-04T12:53:05.293Z,101106.69
2018-12-04T12:55:34.214Z,101111.89
2018-12-04T12:58:02.969Z,101115.38
2018-12-04T13:00:31.396Z,101115.42
2018-12-04T13:03:00.585Z,101122.02
2018-12-04T13:05:29.517Z,101123.34
2018-12-04T13:08:38.132Z,101129.89
2018-12-04T13:11:06.517Z,101131.20
2018-12-04T13:13:36.894Z,101137.31
2018-12-04T13:18:39.948Z,101149.92
2018-12-04T13:21:08.593Z,101149.42
2018-12-04T13:23:37.023Z,101150.19
2018-12-04T13:26:06.577Z,101151.49
2018-12-04T13:28:35.227Z,101151.05
2018-12-04T13:31:03.618Z,101162.91
2018-12-04T13:33:32.523Z,101165.09
2018-12-04T13:36:01.283Z,101189.61
2018-12-04T13:38:49.212Z,101175.33
2018-12-04T13:41:17.564Z,101186.29
2018-12-04T13:43:45.844Z,101187.26
2018-12-04T13:46:15.108Z,101195.14
2018-12-04T13:48:43.457Z,101199.06
2018-12-04T13:51:11.757Z,101207.34
2018-12-04T13:53:40.671Z,101207.80
2018-12-04T13:56:09.440Z,101210.42
2018-12-04T13:58:38.638Z,101217.83
2018-12-04T14:01:07.763Z,101227.00
2018-12-04T14:03:36.579Z,101225.22
2018-12-04T14:06:04.965Z,101238.32
2018-12-04T14:08:33.800Z,101239.20
2018-12-04T14:11:02.174Z,101242.69
2018-12-04T14:13:30.403Z,101246.63
2018-12-04T14:15:59.019Z,101254.05
2018-12-04T14:18:27.292Z,101264.07
2018-12-04T14:20:55.892Z,101271.06
2018-12-04T14:23:24.206Z,101273.66
2018-12-04T14:25:52.905Z,101272.36
2018-12-04T14:28:21.349Z,101274.95
2018-12-04T14:30:51.154Z,101281.50
2018-12-04T14:33:19.511Z,101294.14
2018-12-04T14:35:47.790Z,101292.81
2018-12-04T14:38:16.079Z,101306.34
2018-12-04T14:40:44.726Z,101303.73
2018-12-04T14:43:13.073Z,101303.69
2018-12-04T14:45:41.391Z,101319.83
2018-12-04T14:48:10.776Z,101317.20
2018-12-04T14:50:39.440Z,101325.03
2018-12-04T14:53:07.838Z,101337.23
2018-12-04T14:55:37.004Z,101346.37
2018-12-04T14:58:05.323Z,101357.24
2018-12-04T15:00:33.901Z,101358.98
2018-12-04T15:03:02.263Z,101367.22
2018-12-04T15:05:30.936Z,101370.70
2018-12-04T15:07:59.886Z,101375.44
2018-12-04T15:10:28.793Z,101385.03
2018-12-04T15:12:57.162Z,101388.95
2018-12-04T15:15:25.717Z,101380.66
2018-12-04T15:17:54.058Z,101388.91
2018-12-04T15:20:22.608Z,101397.61
2018-12-04T15:22:50.871Z,101406.33
2018-12-04T15:25:19.297Z,101410.70
2018-12-04T15:28:08.961Z,101408.92
2018-12-04T15:30:37.320Z,101418.53
2018-12-04T15:33:05.662Z,101427.62
2018-12-04T15:35:34.821Z,101431.09
2018-12-04T15:38:03.757Z,101436.25
2018-12-04T15:40:34.030Z,101441.49
2018-12-04T15:43:02.164Z,101441.06
2018-12-04T15:45:30.501Z,101456.29
2018-12-04T15:47:59.099Z,101452.30
2018-12-04T15:50:27.589Z,101461.81
2018-12-04T15:53:15.371Z,101463.53
2018-12-04T15:55:43.772Z,101463.02
2018-12-04T15:58:12.074Z,101465.61
2018-12-04T16:00:40.426Z,101473.93
2018-12-04T16:03:08.818Z,101469.52
2018-12-04T16:05:37.691Z,101472.12
2018-12-04T16:08:06.069Z,101477.75
2018-12-04T16:10:35.326Z,101487.34
2018-12-04T16:13:04.813Z,101489.02
2018-12-04T16:15:33.298Z,101492.95
2018-12-04T16:18:02.075Z,101497.67
2018-12-04T16:20:30.558Z,101504.18
2018-12-04T16:22:58.917Z,101504.66
2018-12-04T16:25:27.725Z,101503.31
2018-12-04T16:27:56.085Z,101511.45
2018-12-04T16:30:24.789Z,101523.62
2018-12-04T16:32:53.093Z,101530.52
2018-12-04T16:35:21.346Z,101541.39
2018-12-04T16:37:49.993Z,101551.36
2018-12-04T16:40:19.031Z,101556.92
2018-12-04T16:42:47.356Z,101560.76
2018-12-04T16:45:15.647Z,101566.86
2018-12-04T16:47:44.285Z,101566.84
2018-12-04T16:50:12.835Z,101579.83
2018-12-04T16:52:42.210Z,101574.95
2018-12-04T16:55:10.626Z,101580.16
2018-12-04T16:57:38.992Z,101590.21
2018-12-04T17:00:09.153Z,101587.94
2018-12-04T17:02:37.558Z,101590.53
2018-12-04T17:05:06.136Z,101600.98
2018-12-04T17:07:34.665Z,101602.71
2018-12-04T17:10:03.481Z,101601.43
2018-12-04T17:12:31.972Z,101603.56
2018-12-04T17:15:01.258Z,101611.28
2018-12-04T17:17:29.661Z,101613.92
2018-12-04T17:19:58.497Z,101611.28
2018-12-04T17:22:26.829Z,101620.49
2018-12-04T17:24:55.480Z,101622.94
2018-12-04T17:27:24.447Z,101630.77
2018-12-04T17:29:52.791Z,101635.50
2018-12-04T17:32:21.514Z,101645.00
2018-12-04T17:34:50.253Z,101641.06
2018-12-04T17:37:18.683Z,101647.66
2018-12-04T17:39:46.999Z,101653.64
2018-12-04T17:42:15.627Z,101654.09
2018-12-04T17:44:44.039Z,101655.82
2018-12-04T17:47:12.642Z,101658.80
2018-12-04T17:49:41.034Z,101658.42
2018-12-04T17:52:10.053Z,101657.47
2018-12-04T17:54:38.487Z,101655.59
2018-12-04T17:57:06.844Z,101659.48
2018-12-04T17:59:35.594Z,101662.53
2018-12-04T18:02:04.088Z,101670.59
2018-12-04T18:04:32.588Z,101678.36
2018-12-04T18:07:00.835Z,101682.23
2018-12-04T18:09:29.677Z,101679.50
2018-12-04T18:11:57.942Z,101678.14
2018-12-04T18:14:26.200Z,101686.15
2018-12-04T18:16:55.676Z,101687.39
2018-12-04T18:19:24.446Z,101692.56
2018-12-04T18:21:52.714Z,101696.53
2018-12-04T18:24:21.316Z,101702.06
2018-12-04T18:26:49.584Z,101703.27
2018-12-04T18:29:18.216Z,101709.06
2018-12-04T18:31:46.712Z,101718.50
2018-12-04T18:34:15.375Z,101719.34
2018-12-04T18:36:45.177Z,101715.30
2018-12-04T18:39:13.535Z,101726.06
2018-12-04T18:41:42.154Z,101728.59
2018-12-04T18:44:10.508Z,101728.56
2018-12-04T18:46:38.872Z,101730.81
2018-12-04T18:49:07.223Z,101726.84
2018-12-04T18:51:35.695Z,101720.71
2018-12-04T18:54:04.365Z,101719.91
2018-12-04T18:56:33.003Z,101729.05
2018-12-04T18:59:01.632Z,101727.64
2018-12-04T19:01:30.553Z,101736.86
2018-12-04T19:03:59.573Z,101741.95
2018-12-04T19:06:28.209Z,101746.32
2018-12-04T19:08:57.181Z,101744.10
2018-12-04T19:13:55.593Z,101743.95
2018-12-04T19:16:24.115Z,101750.00
2018-12-04T19:18:52.981Z,101748.24
2018-12-04T19:21:42.432Z,101764.58
2018-12-04T19:24:12.040Z,101763.17
2018-12-04T19:26:40.552Z,101766.03
2018-12-04T19:29:28.492Z,101771.19
2018-12-04T19:32:16.560Z,101767.30
2018-12-04T19:34:44.977Z,101771.99
2018-12-04T19:37:13.366Z,101775.31
2018-12-04T19:39:41.936Z,101775.98
2018-12-04T19:42:10.576Z,101791.64
2018-12-04T19:44:57.946Z,101794.23
2018-12-04T19:47:26.928Z,101789.78
2018-12-04T19:49:56.201Z,101798.17
2018-12-04T19:52:25.253Z,101798.77
2018-12-04T19:54:54.185Z,101804.67
2018-12-04T19:57:23.355Z,101803.04
2018-12-04T19:59:52.546Z,101802.58
2018-12-04T20:02:21.718Z,101810.38
2018-12-04T20:04:50.898Z,101814.66
2018-12-04T20:07:19.164Z,101821.58
2018-12-04T20:09:47.590Z,101817.44
2018-12-04T20:12:16.563Z,101825.48
2018-12-04T20:14:44.819Z,101827.70
2018-12-04T20:17:32.997Z,101828.86
2018-12-04T20:20:01.328Z,101829.70
2018-12-04T20:22:30.174Z,101839.64
2018-12-04T20:24:59.148Z,101842.75
2018-12-04T20:27:28.699Z,101845.67
2018-12-04T20:29:57.983Z,101847.86
2018-12-04T20:32:26.749Z,101860.44
2018-12-04T20:35:16.425Z,101853.62
2018-12-04T20:37:45.219Z,101866.11
2018-12-04T20:40:14.858Z,101870.33
2018-12-04T20:42:44.667Z,101874.14
2018-12-04T20:45:32.742Z,101875.91
2018-12-04T20:48:01.068Z,101881.52
2018-12-04T20:50:29.428Z,101888.90
2018-12-04T20:52:58.285Z,101886.80
2018-12-04T20:55:27.839Z,101894.60
2018-12-04T20:57:56.254Z,101901.00
2018-12-04T21:00:24.874Z,101907.14
2018-12-04T21:02:53.145Z,101906.94
2018-12-04T21:05:22.462Z,101904.02
2018-12-04T21:07:51.002Z,101904.66
2018-12-04T21:10:19.599Z,101911.81
2018-12-04T21:12:48.273Z,101913.33
2018-12-04T21:15:17.198Z,101914.91
2018-12-04T21:17:45.750Z,101915.84
2018-12-04T21:20:14.289Z,101915.27
2018-12-04T21:22:42.613Z,101924.25
2018-12-04T21:25:10.921Z,101922.67
2018-12-04T21:27:58.355Z,101928.48
2018-12-04T21:30:45.881Z,101933.81
2018-12-04T21:34:03.609Z,101943.11
2018-12-04T21:37:12.279Z,101940.55
2018-12-04T21:40:23.696Z,101945.38
2018-12-04T21:43:11.370Z,101959.27
2018-12-04T21:46:02.488Z,101960.20
2018-12-04T21:55:33.776Z,101977.78
2018-12-04T21:58:02.343Z,101973.26
2018-12-04T22:00:30.629Z,101979.20
2018-12-04T22:02:59.059Z,101984.33
2018-12-04T22:05:27.421Z,101992.85
2018-12-04T22:07:55.754Z,102002.27
2018-12-04T22:10:24.485Z,102001.28
2018-12-04T22:12:52.964Z,102007.67
2018-12-04T22:15:21.332Z,102007.67
2018-12-04T22:17:49.611Z,102005.32
2018-12-04T22:20:18.282Z,102009.23
2018-12-04T22:22:46.587Z,102012.35
2018-12-04T22:25:34.231Z,102008.41
2018-12-04T22:28:04.046Z,102011.82
2018-12-04T22:30:32.977Z,102012.19
2018-12-04T22:33:01.329Z,102016.15
2018-12-04T22:35:29.620Z,102019.89
2018-12-04T22:37:58.263Z,102025.66
2018-12-04T22:40:26.946Z,102029.87
2018-12-04T22:42:55.583Z,102030.27
2018-12-04T22:53:52.359Z,102024.41
2018-12-04T22:56:20.408Z,102026.08
2018-12-04T22:58:49.524Z,102022.73
2018-12-04T23:01:39.158Z,102026.48
2018-12-04T23:04:07.736Z,102020.71
2018-12-04T23:06:36.037Z,102029.45
2018-12-04T23:09:09.221Z,102030.29
2018-12-04T23:11:38.489Z,102026.13
2018-12-04T23:14:07.132Z,102027.11
2018-12-04T23:16:36.088Z,102033.36
2018-12-04T23:19:04.736Z,102030.64
2018-12-04T23:21:33.420Z,102030.59
2018-12-04T23:24:01.817Z,102039.78
2018-12-04T23:26:30.465Z,102041.17
2018-12-04T23:28:58.911Z,102043.73
2018-12-04T23:31:27.338Z,102042.47
2018-12-04T23:33:55.668Z,102039.78
2018-12-04T23:36:24.411Z,102036.03
2018-12-04T23:38:53.341Z,102038.53
2018-12-04T23:41:22.015Z,102045.19
2018-12-04T23:43:50.533Z,102041.87
2018-12-04T23:46:19.287Z,102045.59
2018-12-04T23:48:48.484Z,102048.92
2018-12-04T23:51:16.749Z,102039.10
2018-12-04T23:53:45.448Z,102047.63
2018-12-04T23:56:13.819Z,102056.63
2018-12-04T23:58:42.200Z,102054.55
